Airfield :
LOGIN :

Register | Disclaimer

   EN    FR    IT 

 










Legend :    VFR   Marginal VFR   IFR   Intensive IFR   Very Intensive IFR
Visi :
Ceiling :
>= 8 km
>= 3000ft
5 to 8 km
1000 to 3000 ft
1500m to 5 km
500 to 1000 ft
800 to 1500m
200 to 500 ft
< 800m
< 200 ft
Symbols :   Thunderstorms  Fog  Heavy snow  Heavy precipitations  Wind > 20 kt
SIGMETs :     Misc.  Thunderstorms  Icing  Turbulence  Mountain Waves  Volcanic Ashes







- Airport Elevation : 90 ft
- IATA code : NTE
- Download approach charts


LFRS - Nantes

CURRENT METAR :
  • 222030Z AUTO 25010KT 210V270 9999 SCT021 BKN027 16/14 Q1012 NOSIG

EXPIRED METARs :
  • 222000Z AUTO 24010KT 210V270 9999 BKN022 BKN027 OVC078 16/14 Q1012 NOSIG
  • 221930Z AUTO 24009KT 9999 BKN022/// BKN140/// ///TCU 16/14 Q1012 BECMG SCT030
  • 221900Z AUTO 23008KT 9999 BKN032/// BKN100/// BKN160/// ///CB 17/14 Q1011 TEMPO 23015G25KT 4000 SHRA BECMG SCT030
  • 221830Z AUTO 23008KT 9999 -RA SCT028/// BKN042/// BKN049/// ///TCU 16/14 Q1011 TEMPO 23015G25KT 4000 SHRA SCT015CB BKN025TCU
  • 221800Z AUTO 24010KT 9999 FEW026/// SCT098/// BKN120/// ///TCU 17/13 Q1011 TEMPO 23015G25KT 4000 SHRA SCT015CB BKN025TCU

TAF TAF LFRS
Valid from the 22 at 18:00 until the 24 at 00:00 UTC


221700Z 2218/2324 25008KT 9999 SCT030
TEMPO 2218/2220 23015G25KT 4000 SHRA SCT015CB BKN025TCU
BECMG 2222/2224 26010KT
BECMG 2308/2310 18010KT
TEMPO 2306/2312 -SHRA SCT006 SCT014TCU
BECMG 2314/2318 -RA BKN006
ATIS : +33 2 40 05 12 74
No reported NOTAMs for that airfield.



MET'MAP, your aeronautical weather chart ! - Copyright ORBIFLY December 2007 - Disclaimer

ORBIFLY MET'MAP TEAM :

Programming & Development : Alexandra Zaïnal
Concept & Development : Baudouin d'Aumeries
Co-Development & Prog : Marc-Olivier Méhu
Technical & hardware support : Manuel Goepfert

Contact : metmap@orbifly.com




SOURCES & CREDITS :

   NOAA